Ana Sayfa
METAR-TAF:

METAR-TAF

Havaalanları :

Municipal_Airport

Plymouth, New Hampshire, Amerika Birleşik Devletleri

Enlem: 43-46-45N, Boylam: 071-45-13W, yükseklik: 154 m

Güncel hava durumu gözlemi

Rapor saat 07:55 UTC de 16 dakika önce yapıldı.
Sakin rüzgar
Sıcaklık 0°C
Nem 100%
Basınç 1017 hPa
Görüş mesafesi: 3.2 km
800 ft yükseklikte parçalı çok bulutlu
1400 ft yükseklikte çok bulutlu
bilinmiyor

METAR: K1P1 140755Z AUTO 00000KT 2SM UP BKN008 OVC014 00/00 A3002 RMK AO2 P0005 T00010000

Saat: 03:11 (08:11 UTC)


TAF: eksik

4.000'den fazla havaalanı için hava durumu gözlemleri ve tahminleri (METAR ve TAF raporları).

Kullanılabilir istasyonlar harita üzerinde sarı ve kırmızı noktalarla gösterilir.

İstasyonun adını görmek için fareyi noktanın üzerinde gezdirin.

Sonrasında hava gözlem ve tahminlerini görmek için tıklayın.

Haritayı değiştirmek için: yaklaştırmak için siyah artı işaretli yeşil düğmeye ve uzaklaştırmak için de eksi işaretli düğmeye hızla tıklayın; bitişik haritalar için yeşil okları kullanın.


METAR-TAF: